createdAt,value
2022-10-14T00:01:26.971Z,99.90
2022-10-14T00:03:56.754Z,99.90
2022-10-14T00:06:27.824Z,99.90
2022-10-14T00:08:57.089Z,99.90
2022-10-14T00:11:28.800Z,99.90
2022-10-14T00:13:59.540Z,99.90
2022-10-14T00:16:30.060Z,99.90
2022-10-14T00:19:00.203Z,99.90
2022-10-14T00:21:29.312Z,99.90
2022-10-14T00:23:58.284Z,99.90
2022-10-14T00:26:29.179Z,99.90
2022-10-14T00:28:57.766Z,99.90
2022-10-14T00:31:27.888Z,99.90
2022-10-14T00:33:57.037Z,99.90
2022-10-14T00:36:26.673Z,99.90
2022-10-14T00:38:55.707Z,99.90
2022-10-14T00:41:27.873Z,99.90
2022-10-14T00:44:00.264Z,99.90
2022-10-14T00:46:30.084Z,99.90
2022-10-14T00:49:06.824Z,99.90
2022-10-14T00:51:38.964Z,99.90
2022-10-14T00:54:07.816Z,99.90
2022-10-14T00:56:37.113Z,99.90
2022-10-14T00:59:09.488Z,99.90
2022-10-14T01:01:37.853Z,99.90
2022-10-14T01:04:06.226Z,99.90
2022-10-14T01:06:44.006Z,99.90
2022-10-14T01:09:21.198Z,99.90
2022-10-14T01:12:26.938Z,99.90
2022-10-14T01:14:59.234Z,99.90
2022-10-14T01:17:37.833Z,99.90
2022-10-14T01:20:38.945Z,99.90
2022-10-14T01:23:25.540Z,99.90
2022-10-14T01:26:03.457Z,99.90
2022-10-14T01:28:43.987Z,99.90
2022-10-14T01:31:17.589Z,99.90
2022-10-14T01:33:47.546Z,99.90
2022-10-14T01:36:21.525Z,99.90
2022-10-14T01:38:54.499Z,99.90
2022-10-14T01:41:26.956Z,99.90
2022-10-14T01:43:58.915Z,99.90
2022-10-14T01:46:30.522Z,99.90
2022-10-14T01:49:03.083Z,99.90
2022-10-14T01:51:38.173Z,99.90
2022-10-14T01:54:13.624Z,99.90
2022-10-14T01:56:45.996Z,99.90
2022-10-14T01:59:18.365Z,99.90
2022-10-14T02:01:48.673Z,99.90
2022-10-14T02:04:18.903Z,99.90
2022-10-14T02:06:51.914Z,99.90
2022-10-14T02:09:28.286Z,99.90
2022-10-14T02:12:05.748Z,99.90
2022-10-14T02:14:44.393Z,99.90
2022-10-14T02:17:20.876Z,99.90
2022-10-14T02:19:54.228Z,99.90
2022-10-14T02:22:29.008Z,99.90
2022-10-14T02:25:19.192Z,99.90
2022-10-14T02:27:49.436Z,99.90
2022-10-14T02:30:19.003Z,99.90
2022-10-14T02:32:54.047Z,99.90
2022-10-14T02:35:25.792Z,99.90
2022-10-14T02:37:57.831Z,99.90
2022-10-14T02:40:32.305Z,99.90
2022-10-14T02:43:01.775Z,99.90
2022-10-14T02:45:31.045Z,99.90
2022-10-14T02:48:02.521Z,99.90
2022-10-14T02:50:31.245Z,99.90
2022-10-14T02:52:59.519Z,99.90
2022-10-14T02:55:28.331Z,99.90
2022-10-14T02:57:56.590Z,99.90
2022-10-14T03:00:27.576Z,99.90
2022-10-14T03:02:57.641Z,99.90
2022-10-14T03:05:29.860Z,99.90
2022-10-14T03:07:58.097Z,99.90
2022-10-14T03:10:28.838Z,99.90
2022-10-14T03:12:57.062Z,99.90
2022-10-14T03:15:31.016Z,99.90
2022-10-14T03:18:00.485Z,99.90
2022-10-14T03:20:38.821Z,99.90
2022-10-14T03:23:09.541Z,99.90
2022-10-14T03:25:39.198Z,99.90
2022-10-14T03:28:14.694Z,99.90
2022-10-14T03:31:12.726Z,99.90
2022-10-14T03:34:01.169Z,99.90
2022-10-14T03:36:32.357Z,99.90
2022-10-14T03:39:00.635Z,99.90
2022-10-14T03:41:44.321Z,99.90
2022-10-14T03:44:16.049Z,99.90
2022-10-14T03:47:00.203Z,99.90
2022-10-14T03:49:33.077Z,99.90
2022-10-14T03:52:09.167Z,99.90
2022-10-14T03:54:38.945Z,99.90
2022-10-14T03:57:07.372Z,99.90
2022-10-14T03:59:43.351Z,99.90
2022-10-14T04:02:12.442Z,99.90
2022-10-14T04:04:42.823Z,99.90
2022-10-14T04:07:12.464Z,99.90
2022-10-14T04:09:43.857Z,99.90
2022-10-14T04:12:13.420Z,99.90
2022-10-14T04:14:59.724Z,99.90
2022-10-14T04:17:33.485Z,99.90
2022-10-14T04:20:08.489Z,99.90
2022-10-14T04:22:39.435Z,99.90
2022-10-14T04:25:09.697Z,99.90
2022-10-14T04:27:38.347Z,99.90
2022-10-14T04:30:11.048Z,99.90
2022-10-14T04:32:50.473Z,99.90
2022-10-14T04:35:19.680Z,99.90
2022-10-14T04:37:54.808Z,99.90
2022-10-14T04:40:26.187Z,99.90
2022-10-14T04:42:59.103Z,99.90
2022-10-14T04:45:33.495Z,99.90
2022-10-14T04:48:03.820Z,99.90
2022-10-14T04:50:36.021Z,99.90
2022-10-14T04:53:30.579Z,99.90
2022-10-14T04:56:19.197Z,99.90
2022-10-14T04:58:56.496Z,99.90
2022-10-14T05:01:34.536Z,99.90
2022-10-14T05:04:03.291Z,99.90
2022-10-14T05:06:37.395Z,99.90
2022-10-14T05:09:09.028Z,99.90
2022-10-14T05:11:37.863Z,99.90
2022-10-14T05:14:06.343Z,99.90
2022-10-14T05:16:36.543Z,99.90
2022-10-14T05:19:06.044Z,99.90
2022-10-14T05:21:38.051Z,99.90
2022-10-14T05:24:15.143Z,99.90
2022-10-14T05:26:44.639Z,99.90
2022-10-14T05:29:15.077Z,99.90
2022-10-14T05:31:44.112Z,99.90
2022-10-14T05:34:26.365Z,99.90
2022-10-14T05:36:54.564Z,99.90
2022-10-14T05:39:25.104Z,99.90
2022-10-14T05:41:53.522Z,99.90
2022-10-14T05:44:26.204Z,99.90
2022-10-14T05:46:54.554Z,99.90
2022-10-14T05:49:23.899Z,99.90
2022-10-14T05:51:52.134Z,99.90
2022-10-14T05:54:25.213Z,99.90
2022-10-14T05:56:56.060Z,99.90
2022-10-14T05:59:25.779Z,99.90
2022-10-14T06:01:53.928Z,99.90
2022-10-14T06:04:22.713Z,99.90
2022-10-14T06:06:51.047Z,99.90
2022-10-14T06:09:19.806Z,99.90
2022-10-14T06:11:55.137Z,99.90
2022-10-14T06:14:24.385Z,99.90
2022-10-14T06:16:53.707Z,99.90
2022-10-14T06:19:22.268Z,99.90
2022-10-14T06:21:50.707Z,99.90
2022-10-14T06:24:19.155Z,99.90
2022-10-14T06:26:49.443Z,99.90
2022-10-14T06:29:17.772Z,99.90
2022-10-14T06:31:46.043Z,99.90
2022-10-14T06:34:14.295Z,99.90
2022-10-14T06:36:42.682Z,99.90
2022-10-14T06:39:11.284Z,99.90
2022-10-14T06:41:39.520Z,99.90
2022-10-14T06:44:21.547Z,99.90
2022-10-14T06:46:50.160Z,99.90
2022-10-14T06:49:18.583Z,99.90
2022-10-14T06:51:46.907Z,99.90
2022-10-14T06:54:15.450Z,99.90
2022-10-14T06:56:43.614Z,99.90
2022-10-14T06:59:11.956Z,99.90
2022-10-14T07:01:41.603Z,99.90
2022-10-14T07:04:09.916Z,99.90
2022-10-14T07:06:38.876Z,99.90
2022-10-14T07:09:07.204Z,99.90
2022-10-14T07:11:35.537Z,99.90
2022-10-14T07:14:03.844Z,99.90
2022-10-14T07:16:33.236Z,99.90
2022-10-14T07:19:03.148Z,99.90
2022-10-14T07:21:31.701Z,99.90
2022-10-14T07:24:00.140Z,99.90
2022-10-14T07:26:30.755Z,99.90
2022-10-14T07:29:05.290Z,99.90
2022-10-14T07:31:42.402Z,99.90
2022-10-14T07:34:12.085Z,99.90
2022-10-14T07:36:40.341Z,99.90
2022-10-14T07:39:08.948Z,99.90
2022-10-14T07:41:37.694Z,99.90
2022-10-14T07:44:12.962Z,99.90
2022-10-14T07:46:43.663Z,99.90
2022-10-14T07:49:15.678Z,99.90
2022-10-14T07:51:44.444Z,99.90
2022-10-14T07:54:15.641Z,99.90
2022-10-14T07:56:45.297Z,99.90
2022-10-14T07:59:14.135Z,99.90
2022-10-14T08:01:43.263Z,99.90
2022-10-14T08:04:13.198Z,99.90
2022-10-14T08:06:41.505Z,99.90
2022-10-14T08:09:11.852Z,99.90
2022-10-14T08:11:41.069Z,99.90
2022-10-14T08:14:09.433Z,99.90
2022-10-14T08:16:38.916Z,99.90
2022-10-14T08:19:13.858Z,99.90
2022-10-14T08:21:44.796Z,99.90
2022-10-14T08:24:13.412Z,99.90
2022-10-14T08:26:50.232Z,99.90
2022-10-14T08:29:18.724Z,99.90
2022-10-14T08:31:47.411Z,99.90
2022-10-14T08:34:15.666Z,99.90
2022-10-14T08:36:45.438Z,99.90
2022-10-14T08:39:13.801Z,99.90
2022-10-14T08:42:00.132Z,99.90
2022-10-14T08:44:38.306Z,99.90
2022-10-14T08:47:13.398Z,99.90
2022-10-14T08:49:54.104Z,99.90
2022-10-14T08:52:30.524Z,99.90
2022-10-14T08:55:05.325Z,99.90
2022-10-14T08:57:39.994Z,99.90
2022-10-14T09:00:12.290Z,99.90
2022-10-14T09:02:46.869Z,99.90
2022-10-14T09:05:16.904Z,99.90
2022-10-14T09:07:48.720Z,99.90
2022-10-14T09:10:26.324Z,99.90
2022-10-14T09:12:57.283Z,99.90
2022-10-14T09:16:43.188Z,99.90
2022-10-14T09:19:24.638Z,99.90
2022-10-14T09:21:54.869Z,99.90
2022-10-14T09:24:27.829Z,99.90
2022-10-14T09:26:58.997Z,99.90
2022-10-14T09:29:29.918Z,99.90
2022-10-14T09:32:00.390Z,99.90
2022-10-14T09:34:34.698Z,99.90
2022-10-14T09:37:25.582Z,99.90
2022-10-14T09:39:58.942Z,99.90
2022-10-14T09:42:31.366Z,99.90
2022-10-14T09:45:11.934Z,99.90
2022-10-14T09:47:46.175Z,99.90
2022-10-14T09:50:33.627Z,99.90
2022-10-14T09:53:06.077Z,99.90
2022-10-14T09:55:40.762Z,99.90
2022-10-14T09:58:15.094Z,99.90
2022-10-14T10:00:43.501Z,99.90
2022-10-14T10:03:26.209Z,99.90
2022-10-14T10:06:03.725Z,99.90
2022-10-14T10:08:32.850Z,99.90
2022-10-14T10:11:06.780Z,99.90
2022-10-14T10:13:44.501Z,99.90
2022-10-14T10:16:22.225Z,99.90
2022-10-14T10:18:52.091Z,99.90
2022-10-14T10:21:26.948Z,99.90
2022-10-14T10:23:58.059Z,99.90
2022-10-14T10:26:30.607Z,99.90
2022-10-14T10:28:59.823Z,99.90
2022-10-14T10:31:52.636Z,99.90
2022-10-14T10:34:54.691Z,99.90
2022-10-14T10:37:28.731Z,99.90
2022-10-14T10:40:18.427Z,99.90
2022-10-14T10:42:56.673Z,99.90
2022-10-14T10:45:39.064Z,99.90
2022-10-14T10:48:15.163Z,99.90
2022-10-14T10:50:49.795Z,99.90
2022-10-14T10:53:46.370Z,99.90
2022-10-14T10:56:26.147Z,99.90
2022-10-14T10:59:07.259Z,99.90
2022-10-14T11:01:44.601Z,99.90
2022-10-14T11:04:30.770Z,99.90
2022-10-14T11:07:28.083Z,99.90
2022-10-14T11:10:27.364Z,99.90
2022-10-14T11:13:00.888Z,99.90
2022-10-14T11:15:40.851Z,99.90
2022-10-14T11:18:14.570Z,99.90
2022-10-14T11:20:57.637Z,99.90
2022-10-14T11:23:57.115Z,99.90
2022-10-14T11:26:42.236Z,99.90
2022-10-14T11:29:23.336Z,99.90
2022-10-14T11:31:57.643Z,99.90
2022-10-14T11:34:42.832Z,99.90
2022-10-14T11:37:25.075Z,99.90
2022-10-14T11:39:59.288Z,99.90
2022-10-14T11:42:39.724Z,99.90
2022-10-14T11:45:28.616Z,99.90
2022-10-14T11:48:09.419Z,99.90
2022-10-14T11:50:43.360Z,99.90
2022-10-14T11:53:17.916Z,99.90
2022-10-14T11:55:51.696Z,99.90
2022-10-14T11:58:27.307Z,99.90
2022-10-14T12:01:01.008Z,99.90
2022-10-14T12:03:44.793Z,99.90
2022-10-14T12:06:19.300Z,99.90
2022-10-14T12:08:55.279Z,99.90
2022-10-14T12:11:30.779Z,99.90
2022-10-14T12:14:06.988Z,99.90
2022-10-14T12:16:35.576Z,99.90
2022-10-14T12:19:03.862Z,99.90
2022-10-14T12:21:39.096Z,99.90
2022-10-14T12:24:14.444Z,99.90
2022-10-14T12:26:52.658Z,99.90
2022-10-14T12:29:26.328Z,99.90
2022-10-14T12:32:21.635Z,99.90
2022-10-14T12:34:51.441Z,99.90
2022-10-14T12:37:43.157Z,99.90
2022-10-14T12:40:30.806Z,99.90
2022-10-14T12:43:15.757Z,99.90
2022-10-14T12:46:02.918Z,99.90
2022-10-14T12:48:33.876Z,99.90
2022-10-14T12:51:13.384Z,99.90
2022-10-14T12:53:58.116Z,99.90
2022-10-14T12:56:33.634Z,99.90
2022-10-14T12:59:04.069Z,99.90
2022-10-14T13:01:36.412Z,99.90
2022-10-14T13:04:08.634Z,99.90
2022-10-14T13:06:40.850Z,99.90
2022-10-14T13:09:38.863Z,99.90
2022-10-14T13:12:42.049Z,99.90
2022-10-14T13:15:36.682Z,99.90
2022-10-14T13:18:41.931Z,99.90
2022-10-14T13:21:21.476Z,99.90
2022-10-14T13:23:52.331Z,99.90
2022-10-14T13:26:28.309Z,99.90
2022-10-14T13:29:17.526Z,99.90
2022-10-14T13:31:55.612Z,99.90
2022-10-14T13:34:35.803Z,99.90
2022-10-14T13:37:25.684Z,99.90
2022-10-14T13:39:54.671Z,99.80
2022-10-14T13:42:26.542Z,99.70
2022-10-14T13:44:59.341Z,99.80
2022-10-14T13:47:28.708Z,99.20
2022-10-14T13:49:57.242Z,99.10
2022-10-14T13:52:28.358Z,99.40
2022-10-14T13:55:16.351Z,99.40
2022-10-14T13:58:12.389Z,99.30
2022-10-14T14:00:46.752Z,99.60
2022-10-14T14:03:25.538Z,99.70
2022-10-14T14:05:54.937Z,99.90
2022-10-14T14:08:40.512Z,99.90
2022-10-14T14:11:18.919Z,99.80
2022-10-14T14:14:00.845Z,99.80
2022-10-14T14:16:34.297Z,99.80
2022-10-14T14:19:09.327Z,99.70
2022-10-14T14:21:38.897Z,99.80
2022-10-14T14:24:19.236Z,99.70
2022-10-14T14:26:55.767Z,99.30
2022-10-14T14:29:28.638Z,99.20
2022-10-14T14:32:07.262Z,99.10
2022-10-14T14:34:39.624Z,99.10
2022-10-14T14:37:43.982Z,99.10
2022-10-14T14:40:17.892Z,99.30
2022-10-14T14:42:48.246Z,99.20
2022-10-14T14:45:21.741Z,99.00
2022-10-14T14:47:53.287Z,99.20
2022-10-14T14:50:30.844Z,99.30
2022-10-14T14:53:03.708Z,99.40
2022-10-14T14:55:38.926Z,99.60
2022-10-14T14:58:22.666Z,99.80
2022-10-14T15:00:54.652Z,99.90
2022-10-14T15:03:24.243Z,99.90
2022-10-14T15:05:55.725Z,99.90
2022-10-14T15:08:28.930Z,99.90
2022-10-14T15:10:59.828Z,99.90
2022-10-14T15:13:48.481Z,99.90
2022-10-14T15:16:41.507Z,99.90
2022-10-14T15:19:38.126Z,99.90
2022-10-14T15:22:28.608Z,99.90
2022-10-14T15:25:08.101Z,99.90
2022-10-14T15:27:48.948Z,99.90
2022-10-14T15:30:28.046Z,99.90
2022-10-14T15:32:59.143Z,99.90
2022-10-14T15:35:28.404Z,99.90
2022-10-14T15:37:58.092Z,99.90
2022-10-14T15:40:29.630Z,99.90
2022-10-14T15:42:59.787Z,99.90
2022-10-14T15:45:28.195Z,99.90
2022-10-14T15:48:02.521Z,99.90
2022-10-14T15:50:30.909Z,99.90
2022-10-14T15:53:00.410Z,99.90
2022-10-14T15:55:35.894Z,99.90
2022-10-14T15:58:08.059Z,99.90
2022-10-14T16:00:37.028Z,99.90
2022-10-14T16:03:07.341Z,99.90
2022-10-14T16:05:36.711Z,99.90
2022-10-14T16:08:12.112Z,99.90
2022-10-14T16:10:40.782Z,99.90
2022-10-14T16:13:11.084Z,99.90
2022-10-14T16:15:47.595Z,99.90
2022-10-14T16:18:18.242Z,99.90
2022-10-14T16:20:46.879Z,99.90
2022-10-14T16:23:16.798Z,99.90
2022-10-14T16:25:46.728Z,99.90
2022-10-14T16:28:21.646Z,99.90
2022-10-14T16:30:50.296Z,99.90
2022-10-14T16:33:19.232Z,99.90
2022-10-14T16:35:52.238Z,99.90
2022-10-14T16:38:21.119Z,99.90
2022-10-14T16:40:55.490Z,99.90
2022-10-14T16:43:25.275Z,99.90
2022-10-14T16:45:54.126Z,99.90
2022-10-14T16:48:22.447Z,99.90
2022-10-14T16:50:53.377Z,99.90
2022-10-14T16:53:39.885Z,99.90
2022-10-14T16:56:25.037Z,99.90
2022-10-14T16:58:54.695Z,99.90
2022-10-14T17:01:23.069Z,99.90
2022-10-14T17:03:51.616Z,99.90
2022-10-14T17:06:23.928Z,99.90
2022-10-14T17:08:52.610Z,99.90
2022-10-14T17:11:21.114Z,99.90
2022-10-14T17:13:52.671Z,99.90
2022-10-14T17:16:22.441Z,99.90
2022-10-14T17:18:52.769Z,99.90
2022-10-14T17:21:21.499Z,99.90
2022-10-14T17:23:50.189Z,99.90
2022-10-14T17:26:19.962Z,99.90
2022-10-14T17:28:49.291Z,99.90
2022-10-14T17:31:20.072Z,99.90
2022-10-14T17:33:50.321Z,99.90
2022-10-14T17:36:24.481Z,99.90
2022-10-14T17:38:53.118Z,99.90
2022-10-14T17:41:21.371Z,99.90
2022-10-14T17:43:50.738Z,99.90
2022-10-14T17:46:21.306Z,99.90
2022-10-14T17:48:52.606Z,99.90
2022-10-14T17:51:25.323Z,99.90
2022-10-14T17:53:54.874Z,99.90
2022-10-14T17:56:23.105Z,99.90
2022-10-14T17:58:55.444Z,99.90
2022-10-14T18:01:37.009Z,99.90
2022-10-14T18:04:13.504Z,99.90
2022-10-14T18:06:46.283Z,99.90
2022-10-14T18:09:14.835Z,99.90
2022-10-14T18:14:34.069Z,99.90
2022-10-14T18:17:02.849Z,99.90
2022-10-14T18:19:33.767Z,99.90
2022-10-14T18:22:02.612Z,99.90
2022-10-14T18:24:30.938Z,99.90
2022-10-14T18:26:59.204Z,99.90
2022-10-14T18:29:27.789Z,99.90
2022-10-14T18:31:56.046Z,99.90
2022-10-14T18:34:25.396Z,99.90
2022-10-14T18:36:55.176Z,99.90
2022-10-14T18:39:23.614Z,99.90
2022-10-14T18:41:51.757Z,99.90
2022-10-14T18:44:20.120Z,99.90
2022-10-14T18:46:48.608Z,99.90
2022-10-14T18:49:16.824Z,99.90
2022-10-14T18:51:45.672Z,99.90
2022-10-14T18:54:16.951Z,99.90
2022-10-14T18:56:46.149Z,99.90
2022-10-14T18:59:16.259Z,99.90
2022-10-14T19:01:45.947Z,99.90
2022-10-14T19:04:16.622Z,99.90
2022-10-14T19:06:47.135Z,99.90
2022-10-14T19:09:17.069Z,99.90
2022-10-14T19:11:46.716Z,99.90
2022-10-14T19:14:15.021Z,99.90
2022-10-14T19:16:44.469Z,99.90
2022-10-14T19:19:16.791Z,99.90
2022-10-14T19:21:46.731Z,99.90
2022-10-14T19:24:16.808Z,99.90
2022-10-14T19:26:46.924Z,99.90
2022-10-14T19:29:16.936Z,99.90
2022-10-14T19:31:45.649Z,99.90
2022-10-14T19:34:16.003Z,99.90
2022-10-14T19:36:45.110Z,99.90
2022-10-14T19:39:16.535Z,99.90
2022-10-14T19:41:46.509Z,99.90
2022-10-14T19:44:16.669Z,99.90
2022-10-14T19:46:45.303Z,99.90
2022-10-14T19:49:14.619Z,99.90
2022-10-14T19:51:43.003Z,99.90
2022-10-14T19:54:12.744Z,99.90
2022-10-14T19:56:42.414Z,99.90
2022-10-14T19:59:11.066Z,99.90
2022-10-14T20:01:39.393Z,99.90
2022-10-14T20:04:07.974Z,99.90
2022-10-14T20:06:38.509Z,99.90
2022-10-14T20:09:07.952Z,99.90
2022-10-14T20:11:36.369Z,99.90
2022-10-14T20:14:05.998Z,99.90
2022-10-14T20:16:34.547Z,99.90
2022-10-14T20:19:02.876Z,99.90
2022-10-14T20:21:31.674Z,99.90
2022-10-14T20:24:00.518Z,99.90
2022-10-14T20:26:29.156Z,99.90
2022-10-14T20:28:57.909Z,99.90
2022-10-14T20:31:27.627Z,99.90
2022-10-14T20:33:56.876Z,99.90
2022-10-14T20:36:25.328Z,99.90
2022-10-14T20:38:53.525Z,99.90
2022-10-14T20:41:23.992Z,99.90
2022-10-14T20:43:53.698Z,99.90
2022-10-14T20:46:23.241Z,99.90
2022-10-14T20:48:56.049Z,99.90
2022-10-14T20:51:24.628Z,99.90
2022-10-14T20:54:00.436Z,99.90
2022-10-14T20:56:35.335Z,99.90
2022-10-14T20:59:07.342Z,99.90
2022-10-14T21:01:37.294Z,99.90
2022-10-14T21:04:08.601Z,99.90
2022-10-14T21:06:38.748Z,99.90
2022-10-14T21:09:07.361Z,99.90
2022-10-14T21:11:35.760Z,99.90
2022-10-14T21:14:04.511Z,99.90
2022-10-14T21:16:34.823Z,99.90
2022-10-14T21:19:05.491Z,99.90
2022-10-14T21:21:38.445Z,99.90
2022-10-14T21:24:07.628Z,99.90
2022-10-14T21:26:36.901Z,99.90
2022-10-14T21:29:06.209Z,99.90
2022-10-14T21:31:34.541Z,99.90
2022-10-14T21:34:06.347Z,99.90
2022-10-14T21:36:36.551Z,99.90
2022-10-14T21:39:09.893Z,99.90
2022-10-14T21:41:38.808Z,99.90
2022-10-14T21:44:07.748Z,99.90
2022-10-14T21:46:37.369Z,99.90
2022-10-14T21:49:05.607Z,99.90
2022-10-14T21:51:33.941Z,99.90
2022-10-14T21:54:06.077Z,99.90
2022-10-14T21:56:34.511Z,99.90
2022-10-14T21:59:02.701Z,99.90
2022-10-14T22:01:31.611Z,99.90
2022-10-14T22:04:03.602Z,99.90
2022-10-14T22:06:32.808Z,99.90
2022-10-14T22:09:02.531Z,99.90
2022-10-14T22:11:34.334Z,99.90
2022-10-14T22:14:04.815Z,99.90
2022-10-14T22:16:33.319Z,99.90
2022-10-14T22:19:03.883Z,99.90
2022-10-14T22:21:34.212Z,99.90
2022-10-14T22:24:02.532Z,99.90
2022-10-14T22:26:32.962Z,99.90
2022-10-14T22:29:02.653Z,99.90
2022-10-14T22:31:32.843Z,99.90
2022-10-14T22:34:01.805Z,99.90
2022-10-14T22:36:31.349Z,99.90
2022-10-14T22:39:01.175Z,99.90
2022-10-14T22:41:35.284Z,99.90
2022-10-14T22:44:08.333Z,99.90
2022-10-14T22:46:39.104Z,99.90
2022-10-14T22:49:07.771Z,99.90
2022-10-14T22:51:40.269Z,99.90
2022-10-14T22:54:09.287Z,99.90
2022-10-14T22:56:37.565Z,99.90
2022-10-14T22:59:08.861Z,99.90
2022-10-14T23:01:38.355Z,99.90
2022-10-14T23:04:06.884Z,99.90
2022-10-14T23:06:35.627Z,99.90
2022-10-14T23:09:04.908Z,99.90
2022-10-14T23:11:33.463Z,99.90
2022-10-14T23:14:04.635Z,99.90
2022-10-14T23:16:37.455Z,99.90
2022-10-14T23:19:05.731Z,99.90
2022-10-14T23:21:35.686Z,99.90
2022-10-14T23:24:07.052Z,99.90
2022-10-14T23:26:36.180Z,99.90
2022-10-14T23:29:07.220Z,99.90
2022-10-14T23:31:38.048Z,99.90
2022-10-14T23:34:07.807Z,99.90
2022-10-14T23:36:36.045Z,99.90
2022-10-14T23:39:04.827Z,99.90
2022-10-14T23:41:33.252Z,99.90
2022-10-14T23:44:01.551Z,99.90
2022-10-14T23:46:30.020Z,99.90
2022-10-14T23:49:07.369Z,99.90
2022-10-14T23:51:42.425Z,99.90
2022-10-14T23:54:10.681Z,99.90
2022-10-14T23:56:38.935Z,99.90
2022-10-14T23:59:07.094Z,99.90
